createdAt,value
2022-10-14T00:01:38.695Z,85.68
2022-10-14T00:04:11.616Z,85.79
2022-10-14T00:06:44.765Z,85.76
2022-10-14T00:09:19.363Z,85.83
2022-10-14T00:11:52.838Z,85.78
2022-10-14T00:14:27.000Z,85.95
2022-10-14T00:17:00.761Z,85.93
2022-10-14T00:19:34.093Z,86.08
2022-10-14T00:22:06.887Z,86.09
2022-10-14T00:24:40.559Z,86.15
2022-10-14T00:27:13.432Z,86.14
2022-10-14T00:29:46.471Z,86.05
2022-10-14T00:32:19.407Z,85.98
2022-10-14T00:34:52.504Z,85.84
2022-10-14T00:37:25.490Z,86.07
2022-10-14T00:39:58.701Z,86.10
2022-10-14T00:42:39.871Z,86.06
2022-10-14T00:45:20.835Z,86.01
2022-10-14T00:47:55.267Z,85.94
2022-10-14T00:50:27.351Z,86.02
2022-10-14T00:53:00.631Z,85.92
2022-10-14T00:55:33.897Z,85.79
2022-10-14T00:58:10.395Z,85.97
2022-10-14T01:00:44.620Z,86.03
2022-10-14T01:03:24.043Z,86.11
2022-10-14T01:06:29.903Z,86.08
2022-10-14T01:09:13.925Z,86.14
2022-10-14T01:12:28.607Z,86.21
2022-10-14T01:15:25.718Z,86.43
2022-10-14T01:18:09.710Z,86.42
2022-10-14T01:21:08.897Z,86.53
2022-10-14T01:24:04.145Z,86.61
2022-10-14T01:26:56.514Z,86.78
2022-10-14T01:30:08.979Z,86.94
2022-10-14T01:33:11.353Z,86.90
2022-10-14T01:36:11.633Z,86.86
2022-10-14T01:38:59.136Z,86.93
2022-10-14T01:41:38.299Z,86.85
2022-10-14T01:44:14.028Z,87.03
2022-10-14T01:46:51.183Z,87.01
2022-10-14T01:49:37.718Z,87.11
2022-10-14T01:52:23.175Z,87.11
2022-10-14T01:54:58.713Z,87.30
2022-10-14T01:57:34.492Z,87.29
2022-10-14T02:00:11.544Z,87.36
2022-10-14T02:02:46.211Z,87.49
2022-10-14T02:05:32.100Z,87.55
2022-10-14T02:08:18.361Z,87.64
2022-10-14T02:11:15.749Z,87.69
2022-10-14T02:14:23.074Z,87.71
2022-10-14T02:17:20.947Z,87.79
2022-10-14T02:19:58.495Z,87.72
2022-10-14T02:22:42.286Z,87.79
2022-10-14T02:25:19.570Z,88.00
2022-10-14T02:27:53.300Z,87.98
2022-10-14T02:30:28.887Z,87.99
2022-10-14T02:33:02.759Z,87.93
2022-10-14T02:35:37.400Z,87.98
2022-10-14T02:38:10.293Z,87.94
2022-10-14T02:40:48.905Z,88.09
2022-10-14T02:43:21.865Z,88.11
2022-10-14T02:45:58.176Z,88.22
2022-10-14T02:48:31.343Z,88.28
2022-10-14T02:51:05.043Z,88.33
2022-10-14T02:53:37.963Z,88.28
2022-10-14T02:56:11.972Z,88.23
2022-10-14T02:58:44.888Z,88.28
2022-10-14T03:01:18.635Z,88.34
2022-10-14T03:03:52.318Z,88.42
2022-10-14T03:06:25.961Z,88.51
2022-10-14T03:09:00.543Z,88.55
2022-10-14T03:11:35.405Z,88.50
2022-10-14T03:14:10.051Z,88.64
2022-10-14T03:16:42.884Z,88.63
2022-10-14T03:19:17.521Z,88.73
2022-10-14T03:21:52.115Z,88.77
2022-10-14T03:24:27.814Z,88.64
2022-10-14T03:27:08.881Z,88.46
2022-10-14T03:29:41.891Z,88.38
2022-10-14T03:32:17.346Z,88.47
2022-10-14T03:35:10.571Z,88.43
2022-10-14T03:37:43.482Z,88.47
2022-10-14T03:40:17.314Z,88.50
2022-10-14T03:42:50.601Z,88.49
2022-10-14T03:45:25.208Z,88.61
2022-10-14T03:47:58.734Z,88.65
2022-10-14T03:50:31.797Z,88.73
2022-10-14T03:53:05.444Z,88.75
2022-10-14T03:55:40.359Z,88.74
2022-10-14T03:58:14.265Z,88.92
2022-10-14T04:00:49.438Z,89.10
2022-10-14T04:03:29.892Z,88.99
2022-10-14T04:06:04.037Z,89.02
2022-10-14T04:08:38.381Z,89.08
2022-10-14T04:11:17.607Z,89.08
2022-10-14T04:13:51.509Z,89.17
2022-10-14T04:16:24.949Z,89.14
2022-10-14T04:19:06.084Z,89.01
2022-10-14T04:21:39.766Z,89.00
2022-10-14T04:24:13.791Z,88.95
2022-10-14T04:26:49.988Z,89.01
2022-10-14T04:29:24.538Z,89.12
2022-10-14T04:31:59.258Z,89.22
2022-10-14T04:34:32.308Z,89.32
2022-10-14T04:37:05.321Z,89.52
2022-10-14T04:39:51.754Z,89.72
2022-10-14T04:42:25.058Z,89.75
2022-10-14T04:44:59.749Z,89.65
2022-10-14T04:47:35.037Z,89.66
2022-10-14T04:50:08.992Z,89.68
2022-10-14T04:52:42.723Z,89.69
2022-10-14T04:55:17.375Z,89.65
2022-10-14T04:57:50.662Z,89.68
2022-10-14T05:00:24.194Z,89.73
2022-10-14T05:02:58.669Z,89.88
2022-10-14T05:05:33.245Z,89.79
2022-10-14T05:08:08.198Z,89.61
2022-10-14T05:10:43.088Z,89.45
2022-10-14T05:13:19.630Z,89.33
2022-10-14T05:15:54.439Z,89.18
2022-10-14T05:18:27.978Z,89.05
2022-10-14T05:21:02.948Z,89.18
2022-10-14T05:23:50.297Z,89.33
2022-10-14T05:26:23.519Z,89.39
2022-10-14T05:28:57.266Z,89.52
2022-10-14T05:31:30.275Z,89.60
2022-10-14T05:34:05.245Z,89.79
2022-10-14T05:36:38.258Z,89.92
2022-10-14T05:39:11.876Z,89.96
2022-10-14T05:41:45.539Z,89.96
2022-10-14T05:44:18.967Z,89.94
2022-10-14T05:46:52.930Z,90.10
2022-10-14T05:49:26.898Z,90.43
2022-10-14T05:52:01.437Z,90.76
2022-10-14T05:54:36.903Z,90.84
2022-10-14T05:57:09.950Z,90.83
2022-10-14T05:59:42.843Z,90.76
2022-10-14T06:02:15.804Z,90.55
2022-10-14T06:04:48.996Z,90.37
2022-10-14T06:07:22.504Z,89.60
2022-10-14T06:09:55.604Z,88.78
2022-10-14T06:12:28.684Z,88.22
2022-10-14T06:15:01.834Z,87.55
2022-10-14T06:17:35.676Z,86.86
2022-10-14T06:20:10.171Z,86.34
2022-10-14T06:22:43.567Z,85.82
2022-10-14T06:25:16.789Z,85.11
2022-10-14T06:27:50.749Z,84.44
2022-10-14T06:30:23.790Z,83.73
2022-10-14T06:32:57.197Z,83.23
2022-10-14T06:35:30.255Z,82.83
2022-10-14T06:38:03.967Z,82.37
2022-10-14T06:40:38.558Z,81.33
2022-10-14T06:43:13.132Z,80.99
2022-10-14T06:45:47.071Z,80.75
2022-10-14T06:48:20.801Z,80.57
2022-10-14T06:50:54.691Z,80.18
2022-10-14T06:53:28.331Z,79.94
2022-10-14T06:56:04.469Z,79.10
2022-10-14T06:58:37.470Z,78.64
2022-10-14T07:01:10.803Z,78.41
2022-10-14T07:03:43.737Z,78.36
2022-10-14T07:06:17.510Z,77.21
2022-10-14T07:08:50.596Z,76.86
2022-10-14T07:11:24.026Z,76.40
2022-10-14T07:13:58.328Z,74.50
2022-10-14T07:16:31.961Z,72.67
2022-10-14T07:19:05.231Z,72.08
2022-10-14T07:21:38.215Z,71.27
2022-10-14T07:24:12.048Z,69.59
2022-10-14T07:26:45.394Z,68.93
2022-10-14T07:29:18.712Z,67.89
2022-10-14T07:31:51.725Z,66.90
2022-10-14T07:34:25.428Z,66.89
2022-10-14T07:36:58.366Z,64.73
2022-10-14T07:39:31.548Z,64.44
2022-10-14T07:42:04.495Z,62.48
2022-10-14T07:44:39.007Z,61.25
2022-10-14T07:47:11.927Z,59.80
2022-10-14T07:49:45.723Z,58.05
2022-10-14T07:52:20.045Z,56.77
2022-10-14T07:54:53.988Z,55.80
2022-10-14T07:57:27.944Z,54.72
2022-10-14T08:00:02.302Z,52.61
2022-10-14T08:02:36.887Z,52.90
2022-10-14T08:07:45.148Z,51.98
2022-10-14T08:10:18.478Z,48.81
2022-10-14T08:12:52.168Z,48.08
2022-10-14T08:15:26.560Z,47.83
2022-10-14T08:17:59.560Z,46.55
2022-10-14T08:20:33.194Z,45.17
2022-10-14T08:23:06.014Z,44.52
2022-10-14T08:25:39.184Z,44.36
2022-10-14T08:28:12.163Z,43.46
2022-10-14T08:30:45.516Z,43.52
2022-10-14T08:33:18.886Z,42.42
2022-10-14T08:35:54.174Z,43.34
2022-10-14T08:38:27.287Z,43.39
2022-10-14T08:41:17.150Z,44.29
2022-10-14T08:44:33.830Z,45.13
2022-10-14T08:47:08.996Z,43.38
2022-10-14T08:50:04.339Z,42.98
2022-10-14T08:52:53.750Z,43.17
2022-10-14T08:55:53.267Z,42.61
2022-10-14T08:58:52.866Z,41.26
2022-10-14T09:01:32.997Z,40.68
2022-10-14T09:04:09.201Z,40.83
2022-10-14T09:06:45.869Z,40.79
2022-10-14T09:09:41.054Z,40.69
2022-10-14T09:12:20.923Z,41.84
2022-10-14T09:15:21.405Z,41.16
2022-10-14T09:17:59.073Z,41.11
2022-10-14T09:20:33.872Z,40.66
2022-10-14T09:23:23.286Z,41.23
2022-10-14T09:26:03.071Z,42.13
2022-10-14T09:28:40.520Z,42.03
2022-10-14T09:31:14.935Z,42.09
2022-10-14T09:33:48.670Z,42.32
2022-10-14T09:36:23.621Z,42.46
2022-10-14T09:38:59.961Z,41.98
2022-10-14T09:41:34.348Z,42.58
2022-10-14T09:44:26.250Z,42.07
2022-10-14T09:47:02.818Z,41.78
2022-10-14T09:49:46.476Z,40.78
2022-10-14T09:52:25.098Z,40.86
2022-10-14T09:55:00.324Z,39.93
2022-10-14T09:57:33.946Z,39.82
2022-10-14T10:00:10.227Z,39.47
2022-10-14T10:02:47.104Z,40.76
2022-10-14T10:05:33.509Z,41.15
2022-10-14T10:08:12.772Z,40.74
2022-10-14T10:11:06.673Z,41.71
2022-10-14T10:13:46.563Z,41.19
2022-10-14T10:16:27.015Z,41.37
2022-10-14T10:19:00.771Z,40.89
2022-10-14T10:21:33.821Z,41.21
2022-10-14T10:24:09.866Z,41.33
2022-10-14T10:26:44.039Z,41.42
2022-10-14T10:29:28.436Z,41.95
2022-10-14T10:32:18.286Z,42.10
2022-10-14T10:35:24.349Z,43.98
2022-10-14T10:38:30.021Z,44.83
2022-10-14T10:41:15.980Z,43.00
2022-10-14T10:44:41.859Z,42.09
2022-10-14T10:47:28.837Z,41.62
2022-10-14T10:50:31.635Z,41.38
2022-10-14T10:53:23.662Z,41.44
2022-10-14T10:56:26.843Z,40.96
2022-10-14T10:59:47.563Z,39.56
2022-10-14T11:02:46.276Z,39.20
2022-10-14T11:05:34.962Z,40.01
2022-10-14T11:08:58.248Z,41.04
2022-10-14T11:12:03.697Z,41.76
2022-10-14T11:14:57.146Z,42.43
2022-10-14T11:17:43.952Z,42.78
2022-10-14T11:20:31.245Z,43.15
2022-10-14T11:23:36.335Z,43.30
2022-10-14T11:26:31.777Z,43.58
2022-10-14T11:29:40.632Z,43.60
2022-10-14T11:32:30.793Z,43.61
2022-10-14T11:35:41.633Z,42.82
2022-10-14T11:38:21.915Z,42.60
2022-10-14T11:41:50.730Z,41.95
2022-10-14T11:44:39.303Z,42.24
2022-10-14T11:47:25.084Z,42.54
2022-10-14T11:50:17.748Z,43.18
2022-10-14T11:53:25.533Z,42.66
2022-10-14T11:56:05.830Z,42.62
2022-10-14T11:58:40.653Z,42.82
2022-10-14T12:01:20.691Z,42.51
2022-10-14T12:04:09.862Z,42.89
2022-10-14T12:06:51.935Z,42.98
2022-10-14T12:09:47.399Z,42.92
2022-10-14T12:12:23.824Z,42.89
2022-10-14T12:15:13.305Z,42.33
2022-10-14T12:18:04.238Z,42.94
2022-10-14T12:21:04.307Z,43.65
2022-10-14T12:23:51.331Z,44.12
2022-10-14T12:26:37.784Z,44.31
2022-10-14T12:29:18.274Z,43.08
2022-10-14T12:32:07.972Z,42.43
2022-10-14T12:34:44.257Z,42.74
2022-10-14T12:37:41.190Z,42.75
2022-10-14T12:40:24.694Z,42.63
2022-10-14T12:43:07.282Z,43.28
2022-10-14T12:45:54.383Z,43.72
2022-10-14T12:48:35.862Z,43.71
2022-10-14T12:51:13.556Z,42.88
2022-10-14T12:53:54.057Z,43.13
2022-10-14T12:56:58.168Z,42.81
2022-10-14T12:59:39.555Z,42.62
2022-10-14T13:02:39.582Z,42.75
2022-10-14T13:05:42.088Z,43.02
2022-10-14T13:08:27.945Z,43.56
2022-10-14T13:11:14.205Z,43.29
2022-10-14T13:13:54.762Z,43.04
2022-10-14T13:16:32.745Z,43.70
2022-10-14T13:19:09.494Z,44.63
2022-10-14T13:21:47.883Z,45.35
2022-10-14T13:24:34.259Z,45.92
2022-10-14T13:27:30.719Z,45.27
2022-10-14T13:30:30.320Z,45.72
2022-10-14T13:33:14.786Z,46.25
2022-10-14T13:36:26.808Z,46.43
2022-10-14T13:39:01.627Z,46.66
2022-10-14T13:41:34.894Z,46.94
2022-10-14T13:44:08.435Z,46.70
2022-10-14T13:46:46.824Z,47.30
2022-10-14T13:49:35.655Z,47.68
2022-10-14T13:52:16.729Z,47.73
2022-10-14T13:54:49.763Z,48.10
2022-10-14T13:58:07.372Z,48.57
2022-10-14T14:00:39.471Z,48.90
2022-10-14T14:02:32.305Z,48.95
2022-10-14T14:05:05.826Z,49.08
2022-10-14T14:10:16.476Z,49.21
2022-10-14T14:12:52.544Z,49.31
2022-10-14T14:15:29.142Z,49.41
2022-10-14T14:18:03.680Z,49.91
2022-10-14T14:20:38.717Z,50.32
2022-10-14T14:23:14.117Z,50.52
2022-10-14T14:26:14.405Z,50.67
2022-10-14T14:28:26.178Z,50.74
2022-10-14T14:30:59.114Z,50.70
2022-10-14T14:33:35.485Z,51.03
2022-10-14T14:36:27.354Z,51.42
2022-10-14T14:39:01.918Z,51.83
2022-10-14T14:41:35.972Z,52.29
2022-10-14T14:44:26.538Z,52.67
2022-10-14T14:46:45.742Z,53.02
2022-10-14T14:49:22.071Z,53.52
2022-10-14T14:51:55.157Z,53.59
2022-10-14T14:54:29.165Z,53.27
2022-10-14T14:57:09.165Z,53.09
2022-10-14T14:59:45.068Z,52.88
2022-10-14T15:02:23.946Z,52.68
2022-10-14T15:05:12.473Z,52.65
2022-10-14T15:07:46.152Z,52.32
2022-10-14T15:10:28.713Z,52.42
2022-10-14T15:13:03.433Z,52.60
2022-10-14T15:15:38.988Z,52.61
2022-10-14T15:18:29.069Z,52.62
2022-10-14T15:21:19.344Z,52.78
2022-10-14T15:23:58.662Z,53.18
2022-10-14T15:26:35.507Z,53.56
2022-10-14T15:32:09.316Z,54.50
2022-10-14T15:34:44.440Z,54.54
2022-10-14T15:37:17.292Z,54.73
2022-10-14T15:40:06.205Z,55.05
2022-10-14T15:42:39.295Z,55.34
2022-10-14T15:45:12.877Z,55.90
2022-10-14T15:47:46.416Z,56.31
2022-10-14T15:50:23.022Z,56.37
2022-10-14T15:52:58.958Z,56.62
2022-10-14T15:55:35.387Z,56.57
2022-10-14T15:58:10.669Z,56.56
2022-10-14T16:00:45.339Z,56.89
2022-10-14T16:03:17.867Z,57.30
2022-10-14T16:05:50.713Z,57.54
2022-10-14T16:08:24.936Z,57.66
2022-10-14T16:10:59.345Z,57.77
2022-10-14T16:13:32.356Z,58.88
2022-10-14T16:16:07.312Z,59.13
2022-10-14T16:18:40.248Z,59.07
2022-10-14T16:21:17.025Z,58.94
2022-10-14T16:23:51.691Z,58.79
2022-10-14T16:26:26.355Z,58.77
2022-10-14T16:29:00.656Z,58.69
2022-10-14T16:31:34.237Z,58.73
2022-10-14T16:34:07.107Z,58.93
2022-10-14T16:36:42.251Z,59.20
2022-10-14T16:39:15.913Z,59.21
2022-10-14T16:41:50.038Z,59.57
2022-10-14T16:44:27.778Z,59.67
2022-10-14T16:47:03.167Z,60.08
2022-10-14T16:49:37.078Z,60.45
2022-10-14T16:52:11.020Z,60.87
2022-10-14T16:54:44.435Z,60.96
2022-10-14T16:57:17.446Z,61.05
2022-10-14T16:59:50.124Z,61.83
2022-10-14T17:02:25.132Z,62.37
2022-10-14T17:05:00.069Z,62.88
2022-10-14T17:07:34.197Z,63.45
2022-10-14T17:10:08.647Z,63.98
2022-10-14T17:12:42.539Z,64.61
2022-10-14T17:15:16.144Z,64.75
2022-10-14T17:17:49.867Z,65.30
2022-10-14T17:20:23.153Z,65.26
2022-10-14T17:22:56.552Z,65.34
2022-10-14T17:25:29.768Z,65.49
2022-10-14T17:30:35.588Z,65.92
2022-10-14T17:33:08.553Z,66.55
2022-10-14T17:35:41.884Z,66.47
2022-10-14T17:38:15.116Z,66.32
2022-10-14T17:40:48.097Z,66.43
2022-10-14T17:43:22.729Z,66.52
2022-10-14T17:45:57.819Z,66.52
2022-10-14T17:48:32.139Z,66.52
2022-10-14T17:51:04.379Z,66.73
2022-10-14T17:53:37.372Z,66.46
2022-10-14T17:56:13.457Z,66.71
2022-10-14T17:58:46.958Z,66.70
2022-10-14T18:01:31.678Z,67.33
2022-10-14T18:03:56.845Z,67.53
2022-10-14T18:06:37.535Z,67.70
2022-10-14T18:09:11.660Z,68.17
2022-10-14T18:14:22.052Z,69.14
2022-10-14T18:16:55.649Z,69.90
2022-10-14T18:19:28.594Z,70.63
2022-10-14T18:22:02.967Z,71.26
2022-10-14T18:24:38.925Z,71.63
2022-10-14T18:27:12.099Z,71.98
2022-10-14T18:29:44.810Z,72.30
2022-10-14T18:32:18.248Z,72.74
2022-10-14T18:34:52.182Z,73.12
2022-10-14T18:37:25.046Z,73.67
2022-10-14T18:39:58.270Z,73.85
2022-10-14T18:42:31.263Z,74.21
2022-10-14T18:45:04.517Z,74.60
2022-10-14T18:47:38.040Z,74.75
2022-10-14T18:50:10.974Z,74.99
2022-10-14T18:52:43.717Z,75.35
2022-10-14T18:55:16.588Z,75.55
2022-10-14T18:57:49.308Z,75.69
2022-10-14T19:00:22.629Z,75.84
2022-10-14T19:02:55.470Z,75.90
2022-10-14T19:05:32.938Z,75.99
2022-10-14T19:08:04.159Z,76.14
2022-10-14T19:10:36.934Z,76.51
2022-10-14T19:13:09.745Z,76.96
2022-10-14T19:15:51.429Z,77.18
2022-10-14T19:18:21.760Z,77.33
2022-10-14T19:20:56.595Z,77.50
2022-10-14T19:23:29.503Z,77.87
2022-10-14T19:26:09.792Z,77.98
2022-10-14T19:28:44.285Z,78.32
2022-10-14T19:31:21.790Z,78.71
2022-10-14T19:33:56.151Z,78.94
2022-10-14T19:36:30.869Z,79.06
2022-10-14T19:39:05.536Z,79.21
2022-10-14T19:41:40.877Z,79.28
2022-10-14T19:44:15.168Z,79.31
2022-10-14T19:46:49.236Z,79.60
2022-10-14T19:49:22.201Z,79.63
2022-10-14T19:51:55.057Z,79.55
2022-10-14T19:54:28.189Z,79.62
2022-10-14T19:57:01.239Z,79.68
2022-10-14T19:59:34.303Z,79.66
2022-10-14T20:02:08.141Z,79.82
2022-10-14T20:04:41.217Z,79.72
2022-10-14T20:07:15.198Z,79.68
2022-10-14T20:09:48.151Z,79.85
2022-10-14T20:12:23.315Z,79.87
2022-10-14T20:14:57.913Z,79.89
2022-10-14T20:17:31.474Z,79.78
2022-10-14T20:20:05.032Z,79.92
2022-10-14T20:22:38.463Z,79.92
2022-10-14T20:25:12.168Z,79.79
2022-10-14T20:27:47.346Z,80.08
2022-10-14T20:30:20.908Z,80.19
2022-10-14T20:32:55.484Z,80.23
2022-10-14T20:38:01.345Z,80.12
2022-10-14T20:40:36.476Z,80.20
2022-10-14T20:43:09.367Z,80.21
2022-10-14T20:45:42.556Z,80.21
2022-10-14T20:48:15.388Z,80.13
2022-10-14T20:50:48.636Z,80.36
2022-10-14T20:53:21.897Z,80.25
2022-10-14T20:55:55.279Z,80.42
2022-10-14T20:58:28.336Z,80.59
2022-10-14T21:01:16.698Z,80.78
2022-10-14T21:03:49.835Z,80.86
2022-10-14T21:06:25.243Z,80.80
2022-10-14T21:08:59.398Z,80.79
2022-10-14T21:11:32.277Z,80.76
2022-10-14T21:14:05.775Z,80.83
2022-10-14T21:16:40.472Z,80.80
2022-10-14T21:19:13.278Z,80.95
2022-10-14T21:21:47.182Z,81.01
2022-10-14T21:24:21.038Z,81.08
2022-10-14T21:26:55.016Z,81.22
2022-10-14T21:29:29.026Z,81.20
2022-10-14T21:32:02.984Z,81.43
2022-10-14T21:34:36.101Z,81.48
2022-10-14T21:37:09.072Z,81.48
2022-10-14T21:39:42.173Z,81.72
2022-10-14T21:42:15.280Z,81.76
2022-10-14T21:44:48.234Z,81.79
2022-10-14T21:47:21.732Z,81.87
2022-10-14T21:49:55.872Z,82.02
2022-10-14T21:52:29.192Z,82.04
2022-10-14T21:55:02.240Z,81.89
2022-10-14T21:57:35.297Z,81.99
2022-10-14T22:00:10.358Z,82.06
2022-10-14T22:02:43.716Z,82.08
2022-10-14T22:05:16.634Z,82.17
2022-10-14T22:07:49.864Z,82.28
2022-10-14T22:10:42.373Z,82.35
2022-10-14T22:13:15.138Z,82.37
2022-10-14T22:15:49.151Z,82.31
2022-10-14T22:18:23.198Z,82.41
2022-10-14T22:21:06.954Z,82.48
2022-10-14T22:23:40.679Z,82.37
2022-10-14T22:26:16.467Z,82.44
2022-10-14T22:28:49.771Z,82.26
2022-10-14T22:31:24.003Z,82.12
2022-10-14T22:33:57.231Z,81.88
2022-10-14T22:36:32.473Z,81.77
2022-10-14T22:39:09.296Z,81.58
2022-10-14T22:41:42.270Z,81.71
2022-10-14T22:44:15.074Z,81.69
2022-10-14T22:46:47.818Z,81.80
2022-10-14T22:49:20.513Z,81.79
2022-10-14T22:51:56.622Z,81.70
2022-10-14T22:54:28.096Z,81.77
2022-10-14T22:57:00.926Z,81.88
2022-10-14T22:59:33.703Z,81.72
2022-10-14T23:02:06.622Z,81.65
2022-10-14T23:04:39.506Z,81.69
2022-10-14T23:07:13.161Z,81.60
2022-10-14T23:09:45.872Z,81.69
2022-10-14T23:12:19.630Z,81.68
2022-10-14T23:14:52.381Z,81.88
2022-10-14T23:17:25.287Z,82.06
2022-10-14T23:19:58.662Z,82.22
2022-10-14T23:22:35.228Z,82.37
2022-10-14T23:25:08.665Z,82.68
2022-10-14T23:27:41.514Z,82.76
2022-10-14T23:30:14.657Z,82.89
2022-10-14T23:32:48.187Z,83.00
2022-10-14T23:35:21.107Z,83.26
2022-10-14T23:37:54.338Z,83.34
2022-10-14T23:40:27.286Z,83.37
2022-10-14T23:43:00.333Z,83.32
2022-10-14T23:45:33.454Z,83.28
2022-10-14T23:48:06.903Z,83.00
2022-10-14T23:50:39.755Z,82.90
2022-10-14T23:53:14.100Z,82.70
2022-10-14T23:55:45.989Z,82.51
2022-10-14T23:58:18.558Z,82.36
